Terminal Aerodrome Forecast
Issued by NWS

Home | Current Version | Previous Version | Text Only | Print | Product List | Glossary On
Versions: 1 2 3 4 5 6 7 8 9 10 11 12 13 14 15 16 17 18 19 20 21
000
FTAK31 PAJN 280500
TAFAYA
TAF
PAYA 280520Z 2806/2906 VRB03KT P6SM -RA FEW010 BKN015 OVC035
      TEMPO 2806/2810 6SM -RA BR BKN007 BKN015 OVC025
     FM281500 VRB05KT P6SM -RA SCT015 BKN025 OVC035
     FM290000 13007KT P6SM -SHRA BKN035 OVC050
      AMD LTD TO CLD VIS AND WIND 2806/2810=

USA.gov is the U.S. government's official web portal to all federal, state and local government web resources and services.